createdAt,value
2018-09-20T00:02:08.262Z,81.58
2018-09-20T00:05:12.991Z,82.02
2018-09-20T00:08:17.525Z,82.00
2018-09-20T00:11:22.264Z,81.96
2018-09-20T00:14:27.305Z,82.79
2018-09-20T00:17:31.851Z,82.70
2018-09-20T00:20:36.473Z,81.90
2018-09-20T00:23:41.190Z,82.39
2018-09-20T00:26:45.789Z,82.89
2018-09-20T00:29:50.464Z,83.24
2018-09-20T00:32:55.454Z,83.25
2018-09-20T00:36:00.110Z,83.58
2018-09-20T00:39:07.475Z,83.64
2018-09-20T00:42:12.061Z,83.08
2018-09-20T00:45:16.881Z,83.05
2018-09-20T00:48:21.588Z,83.20
2018-09-20T00:51:26.184Z,83.67
2018-09-20T00:54:30.813Z,83.67
2018-09-20T00:57:35.524Z,83.78
2018-09-20T01:00:40.075Z,83.76
2018-09-20T01:03:44.677Z,84.11
2018-09-20T01:06:49.409Z,83.32
2018-09-20T01:09:54.079Z,84.52
2018-09-20T01:12:58.773Z,84.30
2018-09-20T01:16:03.404Z,84.55
2018-09-20T01:19:08.111Z,84.68
2018-09-20T01:22:12.693Z,84.40
2018-09-20T01:25:17.313Z,84.52
2018-09-20T01:28:22.119Z,85.24
2018-09-20T01:31:26.824Z,84.42
2018-09-20T01:34:31.405Z,83.92
2018-09-20T01:37:36.164Z,83.14
2018-09-20T01:41:08.986Z,83.68
2018-09-20T01:44:14.425Z,83.89
2018-09-20T01:47:19.138Z,84.10
2018-09-20T01:50:23.795Z,83.58
2018-09-20T01:53:28.460Z,83.79
2018-09-20T01:56:33.050Z,83.95
2018-09-20T01:59:37.654Z,84.77
2018-09-20T02:02:42.383Z,85.04
2018-09-20T02:05:47.076Z,84.71
2018-09-20T02:08:51.777Z,84.96
2018-09-20T02:11:56.677Z,85.07
2018-09-20T02:15:01.235Z,85.06
2018-09-20T02:18:05.889Z,84.33
2018-09-20T02:21:10.609Z,84.39
2018-09-20T02:24:15.267Z,83.66
2018-09-20T02:27:19.855Z,85.27
2018-09-20T02:30:24.482Z,84.74
2018-09-20T02:33:29.145Z,84.20
2018-09-20T02:36:33.804Z,84.64
2018-09-20T02:39:38.428Z,85.30
2018-09-20T02:42:43.185Z,85.47
2018-09-20T02:45:47.730Z,85.05
2018-09-20T02:48:52.393Z,85.90
2018-09-20T02:51:56.989Z,86.00
2018-09-20T02:55:01.660Z,85.74
2018-09-20T02:58:06.317Z,86.23
2018-09-20T03:01:10.880Z,86.65
2018-09-20T03:04:15.473Z,86.12
2018-09-20T03:07:20.069Z,86.50
2018-09-20T03:10:24.622Z,87.24
2018-09-20T03:13:29.327Z,87.02
2018-09-20T03:16:33.916Z,87.35
2018-09-20T03:19:38.696Z,87.39
2018-09-20T03:22:43.374Z,87.04
2018-09-20T03:25:48.107Z,87.18
2018-09-20T03:28:52.839Z,86.75
2018-09-20T03:31:57.363Z,87.44
2018-09-20T03:35:02.035Z,86.49
2018-09-20T03:38:06.689Z,86.69
2018-09-20T03:41:11.234Z,86.80
2018-09-20T03:44:15.949Z,86.91
2018-09-20T03:47:20.550Z,87.76
2018-09-20T03:50:25.241Z,87.01
2018-09-20T03:53:29.963Z,86.50
2018-09-20T03:56:34.696Z,87.45
2018-09-20T03:59:39.354Z,87.64
2018-09-20T04:02:43.938Z,88.18
2018-09-20T04:05:48.816Z,87.77
2018-09-20T04:08:53.381Z,88.83
2018-09-20T04:11:58.035Z,88.55
2018-09-20T04:15:02.741Z,87.84
2018-09-20T04:18:07.347Z,87.48
2018-09-20T04:21:11.917Z,87.63
2018-09-20T04:24:16.655Z,87.78
2018-09-20T04:27:22.251Z,88.35
2018-09-20T04:30:26.741Z,88.78
2018-09-20T04:33:31.515Z,89.05
2018-09-20T04:36:36.217Z,88.52
2018-09-20T04:39:40.804Z,87.50
2018-09-20T04:42:45.510Z,87.86
2018-09-20T04:45:50.266Z,88.14
2018-09-20T04:48:54.883Z,88.44
2018-09-20T04:51:59.600Z,88.49
2018-09-20T04:55:04.212Z,88.39
2018-09-20T04:58:08.916Z,88.93
2018-09-20T05:01:13.540Z,89.17
2018-09-20T05:04:19.289Z,88.41
2018-09-20T05:07:24.011Z,88.56
2018-09-20T05:10:28.592Z,88.76
2018-09-20T05:13:33.310Z,88.17
2018-09-20T05:16:37.875Z,87.36
2018-09-20T05:19:42.849Z,87.39
2018-09-20T05:22:47.626Z,87.82
2018-09-20T05:25:53.006Z,87.03
2018-09-20T05:28:57.609Z,85.37
2018-09-20T05:32:02.321Z,85.22
2018-09-20T05:35:07.068Z,85.11
2018-09-20T05:38:11.662Z,83.60
2018-09-20T05:41:16.632Z,82.64
2018-09-20T05:44:21.365Z,81.63
2018-09-20T05:47:25.966Z,81.48
2018-09-20T05:50:30.640Z,80.93
2018-09-20T05:53:35.216Z,80.47
2018-09-20T05:56:39.978Z,80.51
2018-09-20T05:59:44.593Z,78.94
2018-09-20T06:02:49.239Z,78.56
2018-09-20T06:05:53.948Z,79.50
2018-09-20T06:08:58.574Z,77.68
2018-09-20T06:12:03.232Z,78.51
2018-09-20T06:15:08.070Z,77.63
2018-09-20T06:18:12.716Z,77.45
2018-09-20T06:21:17.709Z,77.24
2018-09-20T06:24:22.298Z,76.67
2018-09-20T06:27:26.926Z,74.42
2018-09-20T06:30:31.521Z,74.53
2018-09-20T06:33:36.378Z,75.33
2018-09-20T06:36:41.040Z,74.65
2018-09-20T06:39:45.584Z,74.71
2018-09-20T06:42:50.239Z,71.83
2018-09-20T06:45:54.818Z,71.71
2018-09-20T06:48:59.563Z,72.52
2018-09-20T06:52:04.317Z,71.10
2018-09-20T06:55:09.355Z,70.19
2018-09-20T06:58:13.910Z,70.64
2018-09-20T07:01:18.746Z,70.85
2018-09-20T07:04:23.343Z,69.53
2018-09-20T07:07:28.030Z,70.22
2018-09-20T07:10:32.698Z,70.29
2018-09-20T07:13:37.427Z,67.94
2018-09-20T07:16:41.961Z,68.18
2018-09-20T07:19:46.583Z,68.10
2018-09-20T07:22:51.434Z,69.27
2018-09-20T07:25:56.032Z,69.84
2018-09-20T07:29:01.036Z,68.29
2018-09-20T07:32:06.020Z,68.91
2018-09-20T07:35:10.785Z,68.93
2018-09-20T07:38:15.509Z,68.68
2018-09-20T07:41:20.267Z,67.47
2018-09-20T07:44:25.085Z,66.42
2018-09-20T07:47:29.685Z,66.81
2018-09-20T07:50:34.667Z,67.19
2018-09-20T07:53:39.352Z,67.71
2018-09-20T07:56:43.971Z,66.25
2018-09-20T07:59:48.574Z,63.23
2018-09-20T08:02:53.154Z,65.26
2018-09-20T08:05:57.724Z,66.43
2018-09-20T08:09:02.370Z,65.87
2018-09-20T08:12:06.897Z,65.69
2018-09-20T08:15:11.613Z,63.95
2018-09-20T08:18:16.356Z,63.64
2018-09-20T08:21:21.610Z,63.62
2018-09-20T08:24:26.193Z,61.89
2018-09-20T08:27:30.952Z,60.81
2018-09-20T08:30:35.808Z,60.40
2018-09-20T08:33:40.394Z,60.04
2018-09-20T08:36:45.101Z,59.88
2018-09-20T08:39:49.857Z,59.21
2018-09-20T08:42:54.463Z,59.62
2018-09-20T08:45:59.284Z,56.12
2018-09-20T08:49:04.132Z,56.12
2018-09-20T08:52:08.853Z,56.11
2018-09-20T08:55:13.439Z,55.15
2018-09-20T08:58:18.111Z,55.02
2018-09-20T09:01:22.809Z,53.79
2018-09-20T09:04:27.386Z,53.16
2018-09-20T09:07:32.203Z,52.82
2018-09-20T09:10:36.831Z,53.04
2018-09-20T09:13:41.481Z,54.37
2018-09-20T09:16:46.064Z,53.92
2018-09-20T09:19:50.717Z,52.70
2018-09-20T09:22:55.421Z,51.81
2018-09-20T09:26:00.059Z,50.58
2018-09-20T09:29:04.803Z,50.27
2018-09-20T09:32:09.572Z,50.66
2018-09-20T09:35:14.336Z,49.13
2018-09-20T09:38:18.969Z,47.78
2018-09-20T09:41:23.542Z,48.35
2018-09-20T09:44:28.267Z,48.05
2018-09-20T09:47:32.834Z,47.61
2018-09-20T09:50:37.453Z,47.51
2018-09-20T09:53:42.097Z,46.48
2018-09-20T09:56:46.682Z,45.67
2018-09-20T09:59:51.398Z,45.47
2018-09-20T10:02:57.016Z,44.08
2018-09-20T10:06:01.767Z,44.92
2018-09-20T10:09:10.409Z,43.05
2018-09-20T10:12:15.150Z,41.11
2018-09-20T10:15:19.870Z,40.75
2018-09-20T10:18:24.578Z,41.09
2018-09-20T10:21:29.110Z,40.76
2018-09-20T10:24:33.716Z,38.98
2018-09-20T10:27:38.668Z,40.47
2018-09-20T10:30:43.340Z,38.95
2018-09-20T10:33:47.957Z,38.81
2018-09-20T10:36:52.486Z,38.52
2018-09-20T10:39:57.154Z,38.83
2018-09-20T10:43:01.775Z,38.62
2018-09-20T10:46:06.363Z,39.68
2018-09-20T10:49:11.062Z,40.31
2018-09-20T10:52:15.717Z,39.75
2018-09-20T10:55:20.313Z,38.30
2018-09-20T10:58:24.963Z,39.08
2018-09-20T11:01:29.598Z,39.15
2018-09-20T11:04:34.205Z,37.69
2018-09-20T11:07:38.779Z,37.77
2018-09-20T11:10:43.401Z,36.72
2018-09-20T11:13:47.963Z,37.30
2018-09-20T11:16:52.531Z,36.58
2018-09-20T11:19:57.149Z,37.56
2018-09-20T11:23:01.713Z,37.94
2018-09-20T11:26:06.362Z,38.79
2018-09-20T11:29:11.019Z,37.24
2018-09-20T11:32:15.584Z,37.16
2018-09-20T11:35:20.199Z,38.31
2018-09-20T11:38:24.944Z,37.48
2018-09-20T11:41:29.507Z,36.87
2018-09-20T11:44:34.075Z,37.52
2018-09-20T11:47:38.708Z,38.51
2018-09-20T11:50:43.480Z,38.54
2018-09-20T11:53:48.101Z,35.68
2018-09-20T11:56:53.446Z,36.97
2018-09-20T11:59:58.161Z,37.17
2018-09-20T12:03:02.758Z,36.87
2018-09-20T12:06:07.355Z,37.41
2018-09-20T12:09:12.006Z,35.75
2018-09-20T12:12:16.793Z,35.80
2018-09-20T12:15:21.471Z,36.88
2018-09-20T12:18:26.010Z,35.88
2018-09-20T12:21:30.889Z,36.31
2018-09-20T12:24:35.471Z,35.57
2018-09-20T12:27:40.062Z,36.65
2018-09-20T12:30:44.680Z,35.91
2018-09-20T12:33:49.337Z,37.44
2018-09-20T12:36:53.921Z,37.17
2018-09-20T12:39:58.553Z,35.94
2018-09-20T12:43:03.187Z,35.95
2018-09-20T12:46:08.103Z,35.70
2018-09-20T12:49:12.733Z,34.45
2018-09-20T12:52:17.363Z,33.95
2018-09-20T12:55:22.116Z,34.50
2018-09-20T12:58:31.783Z,32.91
2018-09-20T13:01:36.464Z,34.37
2018-09-20T13:04:41.059Z,33.81
2018-09-20T13:07:45.831Z,33.14
2018-09-20T13:10:50.984Z,32.22
2018-09-20T13:13:55.516Z,31.94
2018-09-20T13:17:00.188Z,32.03
2018-09-20T13:20:05.210Z,32.40
2018-09-20T13:23:10.400Z,32.68
2018-09-20T13:26:14.962Z,32.98
2018-09-20T13:29:19.512Z,32.41
2018-09-20T13:32:24.213Z,30.83
2018-09-20T13:35:28.829Z,30.55
2018-09-20T13:38:33.673Z,28.63
2018-09-20T13:41:38.307Z,29.13
2018-09-20T13:44:42.875Z,29.35
2018-09-20T13:47:47.597Z,29.45
2018-09-20T13:50:52.208Z,28.91
2018-09-20T13:53:56.830Z,29.29
2018-09-20T13:57:01.398Z,29.47
2018-09-20T14:00:07.288Z,28.62
2018-09-20T14:03:11.942Z,29.63
2018-09-20T14:06:16.535Z,29.11
2018-09-20T14:09:21.193Z,28.68
2018-09-20T14:12:25.726Z,30.21
2018-09-20T14:15:30.396Z,28.16
2018-09-20T14:18:34.890Z,28.60
2018-09-20T14:21:39.453Z,28.63
2018-09-20T14:24:44.014Z,27.32
2018-09-20T14:27:48.834Z,28.49
2018-09-20T14:30:53.410Z,28.85
2018-09-20T14:33:58.165Z,28.02
2018-09-20T14:37:03.105Z,27.84
2018-09-20T14:40:07.890Z,28.41
2018-09-20T14:43:12.620Z,27.98
2018-09-20T14:46:17.227Z,28.77
2018-09-20T14:49:22.157Z,28.58
2018-09-20T14:53:02.596Z,27.80
2018-09-20T14:56:07.128Z,28.84
2018-09-20T14:59:11.660Z,29.16
2018-09-20T15:02:16.113Z,29.68
2018-09-20T15:05:20.843Z,28.67
2018-09-20T15:08:25.393Z,29.01
2018-09-20T15:11:29.846Z,29.91
2018-09-20T15:14:34.421Z,30.17
2018-09-20T15:17:38.919Z,29.94
2018-09-20T15:20:43.382Z,29.54
2018-09-20T15:23:47.844Z,29.65
2018-09-20T15:26:52.300Z,30.52
2018-09-20T15:29:56.795Z,30.47
2018-09-20T15:33:01.481Z,31.44
2018-09-20T15:36:05.981Z,32.49
2018-09-20T15:39:11.909Z,32.74
2018-09-20T15:42:16.404Z,31.54
2018-09-20T15:45:21.020Z,30.43
2018-09-20T15:48:25.544Z,32.24
2018-09-20T15:51:30.001Z,33.28
2018-09-20T15:54:34.495Z,32.73
2018-09-20T15:57:39.352Z,33.56
2018-09-20T16:00:43.989Z,33.63
2018-09-20T16:03:48.676Z,36.08
2018-09-20T16:06:53.207Z,35.59
2018-09-20T16:09:57.695Z,36.63
2018-09-20T16:13:02.148Z,36.30
2018-09-20T16:16:06.719Z,36.69
2018-09-20T16:19:11.226Z,36.74
2018-09-20T16:22:15.788Z,38.02
2018-09-20T16:25:20.248Z,37.67
2018-09-20T16:28:44.145Z,38.60
2018-09-20T16:33:00.532Z,39.93
2018-09-20T16:36:35.158Z,39.67
2018-09-20T16:39:42.856Z,40.42
2018-09-20T16:42:50.060Z,40.60
2018-09-20T16:45:54.490Z,40.69
2018-09-20T16:48:59.001Z,41.06
2018-09-20T16:52:03.480Z,42.00
2018-09-20T16:55:08.051Z,42.87
2018-09-20T16:58:12.668Z,43.05
2018-09-20T17:01:17.625Z,42.81
2018-09-20T17:04:22.184Z,43.36
2018-09-20T17:07:26.757Z,43.77
2018-09-20T17:10:31.274Z,43.75
2018-09-20T17:13:35.831Z,44.57
2018-09-20T17:16:40.318Z,44.87
2018-09-20T17:19:44.907Z,45.24
2018-09-20T17:22:49.555Z,46.56
2018-09-20T17:25:54.115Z,47.43
2018-09-20T17:28:58.743Z,48.30
2018-09-20T17:32:03.197Z,49.26
2018-09-20T17:35:08.665Z,49.63
2018-09-20T17:38:14.159Z,50.87
2018-09-20T17:41:22.336Z,51.60
2018-09-20T17:44:27.093Z,52.60
2018-09-20T17:47:31.732Z,52.04
2018-09-20T17:50:36.453Z,52.71
2018-09-20T17:53:41.941Z,53.46
2018-09-20T17:56:47.219Z,54.27
2018-09-20T17:59:51.902Z,54.16
2018-09-20T18:02:56.439Z,54.62
2018-09-20T18:06:00.902Z,54.95
2018-09-20T18:09:08.595Z,56.61
2018-09-20T18:12:13.191Z,56.43
2018-09-20T18:15:17.776Z,56.86
2018-09-20T18:18:22.308Z,57.94
2018-09-20T18:21:27.106Z,57.59
2018-09-20T18:24:31.937Z,58.07
2018-09-20T18:27:36.475Z,58.60
2018-09-20T18:30:41.026Z,58.97
2018-09-20T18:33:45.527Z,59.50
2018-09-20T18:36:50.068Z,59.96
2018-09-20T18:39:54.634Z,60.44
2018-09-20T18:42:59.161Z,60.22
2018-09-20T18:46:03.733Z,61.27
2018-09-20T18:49:08.771Z,61.84
2018-09-20T18:52:13.293Z,61.87
2018-09-20T18:55:18.032Z,61.90
2018-09-20T18:58:22.582Z,62.08
2018-09-20T19:01:27.181Z,62.35
2018-09-20T19:04:31.739Z,63.10
2018-09-20T19:07:36.272Z,62.91
2018-09-20T19:10:41.291Z,63.54
2018-09-20T19:13:45.898Z,62.63
2018-09-20T19:16:50.496Z,63.34
2018-09-20T19:19:54.989Z,63.65
2018-09-20T19:22:59.598Z,64.49
2018-09-20T19:26:04.088Z,65.15
2018-09-20T19:29:08.558Z,65.12
2018-09-20T19:32:13.088Z,65.36
2018-09-20T19:35:17.572Z,65.64
2018-09-20T19:38:22.055Z,65.65
2018-09-20T19:41:26.556Z,65.96
2018-09-20T19:44:31.135Z,66.20
2018-09-20T19:47:35.556Z,66.55
2018-09-20T19:50:40.120Z,66.00
2018-09-20T19:53:44.660Z,66.84
2018-09-20T19:56:49.162Z,66.40
2018-09-20T19:59:53.641Z,67.44
2018-09-20T20:02:58.191Z,67.46
2018-09-20T20:06:02.894Z,67.56
2018-09-20T20:09:12.244Z,68.34
2018-09-20T20:12:16.722Z,68.33
2018-09-20T20:15:21.357Z,68.76
2018-09-20T20:18:25.944Z,69.30
2018-09-20T20:21:30.477Z,69.79
2018-09-20T20:24:35.184Z,69.41
2018-09-20T20:27:39.661Z,69.92
2018-09-20T20:30:44.195Z,70.04
2018-09-20T20:33:48.628Z,70.77
2018-09-20T20:36:53.052Z,70.77
2018-09-20T20:39:57.596Z,71.00
2018-09-20T20:43:02.156Z,70.86
2018-09-20T20:46:06.768Z,71.62
2018-09-20T20:49:11.319Z,71.99
2018-09-20T20:52:15.961Z,71.41
2018-09-20T20:55:20.440Z,71.51
2018-09-20T20:58:25.097Z,71.85
2018-09-20T21:01:29.743Z,71.74
2018-09-20T21:04:34.271Z,72.28
2018-09-20T21:07:38.685Z,73.08
2018-09-20T21:10:43.193Z,73.25
2018-09-20T21:13:47.783Z,73.44
2018-09-20T21:16:52.279Z,73.12
2018-09-20T21:19:56.885Z,73.48
2018-09-20T21:23:01.348Z,73.86
2018-09-20T21:26:06.133Z,73.83
2018-09-20T21:29:10.659Z,74.29
2018-09-20T21:32:15.157Z,74.43
2018-09-20T21:35:19.610Z,74.79
2018-09-20T21:38:24.085Z,74.11
2018-09-20T21:41:28.537Z,75.00
2018-09-20T21:44:33.115Z,75.51
2018-09-20T21:47:37.551Z,75.61
2018-09-20T21:50:42.038Z,76.00
2018-09-20T21:53:46.536Z,75.30
2018-09-20T21:56:50.992Z,75.89
2018-09-20T21:59:55.435Z,75.99
2018-09-20T22:03:03.675Z,75.48
2018-09-20T22:06:08.190Z,76.26
2018-09-20T22:09:14.582Z,76.46
2018-09-20T22:12:19.526Z,77.07
2018-09-20T22:15:25.877Z,77.45
2018-09-20T22:18:30.361Z,77.20
2018-09-20T22:21:35.167Z,77.80
2018-09-20T22:24:39.704Z,77.88
2018-09-20T22:27:44.167Z,77.43
2018-09-20T22:30:48.790Z,78.33
2018-09-20T22:33:53.307Z,78.07
2018-09-20T22:36:57.828Z,78.04
2018-09-20T22:40:02.630Z,78.12
2018-09-20T22:43:07.442Z,79.26
2018-09-20T22:46:11.977Z,78.18
2018-09-20T22:49:16.430Z,78.94
2018-09-20T22:52:20.877Z,78.94
2018-09-20T22:55:25.412Z,78.77
2018-09-20T22:58:29.915Z,78.82
2018-09-20T23:01:34.544Z,78.86
2018-09-20T23:04:39.086Z,78.62
2018-09-20T23:07:43.515Z,78.50
2018-09-20T23:10:48.007Z,79.94
2018-09-20T23:13:52.456Z,79.36
2018-09-20T23:16:57.085Z,79.95
2018-09-20T23:20:01.669Z,79.63
2018-09-20T23:23:06.153Z,79.52
2018-09-20T23:26:10.763Z,80.39
2018-09-20T23:29:15.647Z,80.38
2018-09-20T23:32:20.175Z,80.73
2018-09-20T23:35:24.617Z,81.04
2018-09-20T23:38:29.055Z,81.33
2018-09-20T23:41:33.593Z,81.55
2018-09-20T23:44:38.106Z,81.63
2018-09-20T23:47:42.537Z,81.80
2018-09-20T23:50:47.090Z,82.46
2018-09-20T23:53:51.527Z,81.88
2018-09-20T23:56:56.041Z,82.47
